sensor_id;sensor_type;location;lat;lon;timestamp;temperature;humidity
18361;SHT31;9308;48.550;9.108;2023-09-19T00:01:45;19.51;72.72
18361;SHT31;9308;48.550;9.108;2023-09-19T00:04:12;19.65;72.58
18361;SHT31;9308;48.550;9.108;2023-09-19T00:06:38;19.65;72.66
18361;SHT31;9308;48.550;9.108;2023-09-19T00:09:04;19.55;72.52
18361;SHT31;9308;48.550;9.108;2023-09-19T00:11:29;19.76;71.93
18361;SHT31;9308;48.550;9.108;2023-09-19T00:13:56;19.75;72.28
18361;SHT31;9308;48.550;9.108;2023-09-19T00:16:22;19.54;73.03
18361;SHT31;9308;48.550;9.108;2023-09-19T00:18:48;19.57;72.60
18361;SHT31;9308;48.550;9.108;2023-09-19T00:21:14;19.41;72.90
18361;SHT31;9308;48.550;9.108;2023-09-19T00:23:40;19.26;73.50
18361;SHT31;9308;48.550;9.108;2023-09-19T00:26:06;19.17;73.30
18361;SHT31;9308;48.550;9.108;2023-09-19T00:28:31;19.24;73.57
18361;SHT31;9308;48.550;9.108;2023-09-19T00:30:57;19.54;72.42
18361;SHT31;9308;48.550;9.108;2023-09-19T00:33:26;19.61;72.64
18361;SHT31;9308;48.550;9.108;2023-09-19T00:35:53;19.59;72.02
18361;SHT31;9308;48.550;9.108;2023-09-19T00:38:20;19.41;72.47
18361;SHT31;9308;48.550;9.108;2023-09-19T00:40:52;19.40;72.97
18361;SHT31;9308;48.550;9.108;2023-09-19T00:43:18;19.26;72.67
18361;SHT31;9308;48.550;9.108;2023-09-19T00:45:45;19.36;72.50
18361;SHT31;9308;48.550;9.108;2023-09-19T00:48:13;19.22;72.49
18361;SHT31;9308;48.550;9.108;2023-09-19T00:50:41;19.20;72.24
18361;SHT31;9308;48.550;9.108;2023-09-19T00:53:07;19.10;72.72
18361;SHT31;9308;48.550;9.108;2023-09-19T00:55:34;19.28;71.71
18361;SHT31;9308;48.550;9.108;2023-09-19T00:57:59;19.27;71.94
18361;SHT31;9308;48.550;9.108;2023-09-19T01:00:25;19.13;73.18
18361;SHT31;9308;48.550;9.108;2023-09-19T01:02:51;19.19;72.67
18361;SHT31;9308;48.550;9.108;2023-09-19T01:05:16;19.28;72.41
18361;SHT31;9308;48.550;9.108;2023-09-19T01:07:42;19.34;72.91
18361;SHT31;9308;48.550;9.108;2023-09-19T01:10:09;19.36;72.03
18361;SHT31;9308;48.550;9.108;2023-09-19T01:20:39;19.62;71.48
18361;SHT31;9308;48.550;9.108;2023-09-19T01:23:20;19.27;72.08
18361;SHT31;9308;48.550;9.108;2023-09-19T01:26:06;19.26;71.35
18361;SHT31;9308;48.550;9.108;2023-09-19T01:28:51;19.17;71.95
18361;SHT31;9308;48.550;9.108;2023-09-19T01:31:21;19.28;71.74
18361;SHT31;9308;48.550;9.108;2023-09-19T01:34:02;19.24;72.60
18361;SHT31;9308;48.550;9.108;2023-09-19T01:36:33;19.03;72.51
18361;SHT31;9308;48.550;9.108;2023-09-19T01:39:05;19.07;72.00
18361;SHT31;9308;48.550;9.108;2023-09-19T01:41:59;19.33;72.05
18361;SHT31;9308;48.550;9.108;2023-09-19T01:44:42;19.30;72.09
18361;SHT31;9308;48.550;9.108;2023-09-19T01:47:19;19.04;72.85
18361;SHT31;9308;48.550;9.108;2023-09-19T01:53:05;18.98;72.16
18361;SHT31;9308;48.550;9.108;2023-09-19T01:55:46;18.95;72.99
18361;SHT31;9308;48.550;9.108;2023-09-19T02:00:49;18.86;72.80
18361;SHT31;9308;48.550;9.108;2023-09-19T02:03:20;18.95;72.46
18361;SHT31;9308;48.550;9.108;2023-09-19T02:05:51;19.04;72.10
18361;SHT31;9308;48.550;9.108;2023-09-19T02:08:19;18.90;72.58
18361;SHT31;9308;48.550;9.108;2023-09-19T02:10:45;18.67;72.73
18361;SHT31;9308;48.550;9.108;2023-09-19T02:13:18;18.81;73.03
18361;SHT31;9308;48.550;9.108;2023-09-19T02:15:44;18.85;72.80
18361;SHT31;9308;48.550;9.108;2023-09-19T02:18:10;18.88;72.59
18361;SHT31;9308;48.550;9.108;2023-09-19T02:20:36;19.02;72.34
18361;SHT31;9308;48.550;9.108;2023-09-19T02:23:02;18.88;73.06
18361;SHT31;9308;48.550;9.108;2023-09-19T02:25:28;18.86;72.64
18361;SHT31;9308;48.550;9.108;2023-09-19T02:27:53;18.95;72.54
18361;SHT31;9308;48.550;9.108;2023-09-19T02:30:19;19.09;72.36
18361;SHT31;9308;48.550;9.108;2023-09-19T02:32:48;18.95;72.55
18361;SHT31;9308;48.550;9.108;2023-09-19T02:35:14;18.96;72.57
18361;SHT31;9308;48.550;9.108;2023-09-19T02:37:41;18.88;72.67
18361;SHT31;9308;48.550;9.108;2023-09-19T02:40:06;18.98;72.20
18361;SHT31;9308;48.550;9.108;2023-09-19T02:42:45;19.02;72.12
18361;SHT31;9308;48.550;9.108;2023-09-19T02:45:12;18.88;72.41
18361;SHT31;9308;48.550;9.108;2023-09-19T02:47:37;18.88;72.12
18361;SHT31;9308;48.550;9.108;2023-09-19T02:50:05;18.99;72.18
18361;SHT31;9308;48.550;9.108;2023-09-19T02:52:30;18.96;71.70
18361;SHT31;9308;48.550;9.108;2023-09-19T02:54:55;18.76;72.10
18361;SHT31;9308;48.550;9.108;2023-09-19T02:57:21;18.81;71.74
18361;SHT31;9308;48.550;9.108;2023-09-19T02:59:46;18.92;71.40
18361;SHT31;9308;48.550;9.108;2023-09-19T03:02:12;19.02;71.55
18361;SHT31;9308;48.550;9.108;2023-09-19T03:04:37;18.92;71.94
18361;SHT31;9308;48.550;9.108;2023-09-19T03:07:02;18.78;72.49
18361;SHT31;9308;48.550;9.108;2023-09-19T03:09:29;18.73;72.67
18361;SHT31;9308;48.550;9.108;2023-09-19T03:11:54;18.79;73.35
18361;SHT31;9308;48.550;9.108;2023-09-19T03:14:20;19.09;72.38
18361;SHT31;9308;48.550;9.108;2023-09-19T03:16:45;19.14;71.89
18361;SHT31;9308;48.550;9.108;2023-09-19T03:19:10;18.93;72.58
18361;SHT31;9308;48.550;9.108;2023-09-19T03:21:36;18.98;72.58
18361;SHT31;9308;48.550;9.108;2023-09-19T03:24:02;18.85;73.17
18361;SHT31;9308;48.550;9.108;2023-09-19T03:26:27;18.99;72.96
18361;SHT31;9308;48.550;9.108;2023-09-19T03:28:53;19.04;72.26
18361;SHT31;9308;48.550;9.108;2023-09-19T03:31:19;18.98;72.03
18361;SHT31;9308;48.550;9.108;2023-09-19T03:33:44;19.28;72.31
18361;SHT31;9308;48.550;9.108;2023-09-19T03:36:09;19.06;72.84
18361;SHT31;9308;48.550;9.108;2023-09-19T03:38:35;19.20;72.54
18361;SHT31;9308;48.550;9.108;2023-09-19T03:41:01;19.20;72.72
18361;SHT31;9308;48.550;9.108;2023-09-19T03:43:26;19.27;72.68
18361;SHT31;9308;48.550;9.108;2023-09-19T03:45:53;19.02;72.93
18361;SHT31;9308;48.550;9.108;2023-09-19T03:48:19;19.24;72.54
18361;SHT31;9308;48.550;9.108;2023-09-19T03:50:46;19.24;72.71
18361;SHT31;9308;48.550;9.108;2023-09-19T03:53:12;19.14;73.05
18361;SHT31;9308;48.550;9.108;2023-09-19T03:55:37;19.07;73.36
18361;SHT31;9308;48.550;9.108;2023-09-19T03:58:04;18.93;73.43
18361;SHT31;9308;48.550;9.108;2023-09-19T04:00:29;18.99;73.82
18361;SHT31;9308;48.550;9.108;2023-09-19T04:02:55;19.00;73.44
18361;SHT31;9308;48.550;9.108;2023-09-19T04:05:22;18.71;74.91
18361;SHT31;9308;48.550;9.108;2023-09-19T04:07:47;18.68;74.93
18361;SHT31;9308;48.550;9.108;2023-09-19T04:10:12;18.98;74.50
18361;SHT31;9308;48.550;9.108;2023-09-19T04:12:40;18.92;74.21
18361;SHT31;9308;48.550;9.108;2023-09-19T04:15:05;18.76;74.95
18361;SHT31;9308;48.550;9.108;2023-09-19T04:17:31;18.99;74.47
18361;SHT31;9308;48.550;9.108;2023-09-19T04:19:58;18.78;73.97
18361;SHT31;9308;48.550;9.108;2023-09-19T04:22:23;19.14;73.18
18361;SHT31;9308;48.550;9.108;2023-09-19T04:24:49;19.09;73.52
18361;SHT31;9308;48.550;9.108;2023-09-19T04:27:14;18.99;73.74
18361;SHT31;9308;48.550;9.108;2023-09-19T04:29:39;18.90;73.51
18361;SHT31;9308;48.550;9.108;2023-09-19T04:32:06;19.03;73.01
18361;SHT31;9308;48.550;9.108;2023-09-19T04:34:32;19.20;72.47
18361;SHT31;9308;48.550;9.108;2023-09-19T04:36:59;19.02;72.84
18361;SHT31;9308;48.550;9.108;2023-09-19T04:39:26;19.11;72.13
18361;SHT31;9308;48.550;9.108;2023-09-19T04:41:52;18.89;72.93
18361;SHT31;9308;48.550;9.108;2023-09-19T04:44:18;18.82;73.27
18361;SHT31;9308;48.550;9.108;2023-09-19T04:46:43;18.69;73.36
18361;SHT31;9308;48.550;9.108;2023-09-19T04:49:09;18.78;72.83
18361;SHT31;9308;48.550;9.108;2023-09-19T04:51:34;18.90;73.31
18361;SHT31;9308;48.550;9.108;2023-09-19T04:54:01;19.04;72.82
18361;SHT31;9308;48.550;9.108;2023-09-19T04:56:27;19.00;73.17
18361;SHT31;9308;48.550;9.108;2023-09-19T04:58:54;19.00;73.25
18361;SHT31;9308;48.550;9.108;2023-09-19T05:01:19;19.22;72.47
18361;SHT31;9308;48.550;9.108;2023-09-19T05:03:47;19.09;72.60
18361;SHT31;9308;48.550;9.108;2023-09-19T05:06:17;18.81;73.34
18361;SHT31;9308;48.550;9.108;2023-09-19T05:08:42;18.95;73.43
18361;SHT31;9308;48.550;9.108;2023-09-19T05:11:08;19.04;73.52
18361;SHT31;9308;48.550;9.108;2023-09-19T05:13:34;19.02;73.91
18361;SHT31;9308;48.550;9.108;2023-09-19T05:16:02;19.09;73.44
18361;SHT31;9308;48.550;9.108;2023-09-19T05:18:28;19.13;73.26
18361;SHT31;9308;48.550;9.108;2023-09-19T05:20:53;19.10;74.00
18361;SHT31;9308;48.550;9.108;2023-09-19T05:23:20;19.34;72.94
18361;SHT31;9308;48.550;9.108;2023-09-19T05:25:46;19.43;73.14
18361;SHT31;9308;48.550;9.108;2023-09-19T05:28:11;19.41;72.16
18361;SHT31;9308;48.550;9.108;2023-09-19T05:30:40;19.26;72.93
18361;SHT31;9308;48.550;9.108;2023-09-19T05:33:07;19.13;73.92
18361;SHT31;9308;48.550;9.108;2023-09-19T05:35:33;19.19;73.28
18361;SHT31;9308;48.550;9.108;2023-09-19T05:37:59;19.11;73.60
18361;SHT31;9308;48.550;9.108;2023-09-19T05:40:25;19.20;72.88
18361;SHT31;9308;48.550;9.108;2023-09-19T05:42:51;19.17;72.45
18361;SHT31;9308;48.550;9.108;2023-09-19T05:45:16;19.17;73.55
18361;SHT31;9308;48.550;9.108;2023-09-19T05:47:51;19.27;73.04
18361;SHT31;9308;48.550;9.108;2023-09-19T05:50:17;19.45;72.64
18361;SHT31;9308;48.550;9.108;2023-09-19T05:52:43;19.54;72.26
18361;SHT31;9308;48.550;9.108;2023-09-19T05:55:17;19.38;72.52
18361;SHT31;9308;48.550;9.108;2023-09-19T05:57:42;19.51;72.46
18361;SHT31;9308;48.550;9.108;2023-09-19T06:00:08;19.27;73.54
18361;SHT31;9308;48.550;9.108;2023-09-19T06:02:37;19.26;73.39
18361;SHT31;9308;48.550;9.108;2023-09-19T06:05:04;19.41;72.69
18361;SHT31;9308;48.550;9.108;2023-09-19T06:07:31;19.74;72.14
18361;SHT31;9308;48.550;9.108;2023-09-19T06:10:02;19.68;71.50
18361;SHT31;9308;48.550;9.108;2023-09-19T06:12:30;19.68;71.65
18361;SHT31;9308;48.550;9.108;2023-09-19T06:14:58;19.43;72.22
18361;SHT31;9308;48.550;9.108;2023-09-19T06:17:24;19.54;72.17
18361;SHT31;9308;48.550;9.108;2023-09-19T06:19:49;19.34;72.68
18361;SHT31;9308;48.550;9.108;2023-09-19T06:22:16;19.31;73.25
18361;SHT31;9308;48.550;9.108;2023-09-19T06:24:44;19.38;72.82
18361;SHT31;9308;48.550;9.108;2023-09-19T06:27:09;19.23;72.98
18361;SHT31;9308;48.550;9.108;2023-09-19T06:29:34;19.31;73.27
18361;SHT31;9308;48.550;9.108;2023-09-19T06:32:06;19.45;72.90
18361;SHT31;9308;48.550;9.108;2023-09-19T06:34:32;19.45;72.82
18361;SHT31;9308;48.550;9.108;2023-09-19T06:36:58;19.54;72.89
18361;SHT31;9308;48.550;9.108;2023-09-19T06:39:23;19.83;72.39
18361;SHT31;9308;48.550;9.108;2023-09-19T06:41:51;19.65;72.32
18361;SHT31;9308;48.550;9.108;2023-09-19T06:44:18;20.02;71.58
18361;SHT31;9308;48.550;9.108;2023-09-19T06:46:44;19.85;72.00
18361;SHT31;9308;48.550;9.108;2023-09-19T06:49:11;19.83;71.88
18361;SHT31;9308;48.550;9.108;2023-09-19T06:51:38;19.89;71.86
18361;SHT31;9308;48.550;9.108;2023-09-19T06:54:03;19.86;71.95
18361;SHT31;9308;48.550;9.108;2023-09-19T06:56:30;19.75;72.23
18361;SHT31;9308;48.550;9.108;2023-09-19T06:58:57;19.98;71.57
18361;SHT31;9308;48.550;9.108;2023-09-19T07:01:22;19.45;71.92
18361;SHT31;9308;48.550;9.108;2023-09-19T07:03:47;19.44;72.32
18361;SHT31;9308;48.550;9.108;2023-09-19T07:06:13;19.61;72.05
18361;SHT31;9308;48.550;9.108;2023-09-19T07:08:38;19.93;71.66
18361;SHT31;9308;48.550;9.108;2023-09-19T07:11:03;19.75;71.56
18361;SHT31;9308;48.550;9.108;2023-09-19T07:13:31;19.90;72.12
18361;SHT31;9308;48.550;9.108;2023-09-19T07:15:58;19.98;72.12
18361;SHT31;9308;48.550;9.108;2023-09-19T07:18:23;20.06;72.59
18361;SHT31;9308;48.550;9.108;2023-09-19T07:20:48;20.20;71.61
18361;SHT31;9308;48.550;9.108;2023-09-19T07:23:18;20.39;71.30
18361;SHT31;9308;48.550;9.108;2023-09-19T07:25:44;20.54;71.00
18361;SHT31;9308;48.550;9.108;2023-09-19T07:28:11;20.41;71.85
18361;SHT31;9308;48.550;9.108;2023-09-19T07:30:37;20.45;71.72
18361;SHT31;9308;48.550;9.108;2023-09-19T07:33:03;20.51;70.82
18361;SHT31;9308;48.550;9.108;2023-09-19T07:35:30;20.64;70.19
18361;SHT31;9308;48.550;9.108;2023-09-19T07:37:56;20.72;70.05
18361;SHT31;9308;48.550;9.108;2023-09-19T07:40:21;20.74;69.70
18361;SHT31;9308;48.550;9.108;2023-09-19T07:42:48;20.64;70.10
18361;SHT31;9308;48.550;9.108;2023-09-19T07:45:15;20.62;70.18
18361;SHT31;9308;48.550;9.108;2023-09-19T07:47:45;20.72;69.71
18361;SHT31;9308;48.550;9.108;2023-09-19T07:50:12;20.61;69.05
18361;SHT31;9308;48.550;9.108;2023-09-19T07:52:37;20.50;69.19
18361;SHT31;9308;48.550;9.108;2023-09-19T07:55:05;20.67;68.63
18361;SHT31;9308;48.550;9.108;2023-09-19T07:57:34;20.55;68.90
18361;SHT31;9308;48.550;9.108;2023-09-19T08:00:00;20.75;68.62
18361;SHT31;9308;48.550;9.108;2023-09-19T08:02:25;21.02;68.61
18361;SHT31;9308;48.550;9.108;2023-09-19T08:04:51;21.05;67.73
18361;SHT31;9308;48.550;9.108;2023-09-19T08:07:17;20.85;68.11
18361;SHT31;9308;48.550;9.108;2023-09-19T08:09:43;20.64;67.39
18361;SHT31;9308;48.550;9.108;2023-09-19T08:12:12;20.92;67.33
18361;SHT31;9308;48.550;9.108;2023-09-19T08:14:37;21.44;66.74
18361;SHT31;9308;48.550;9.108;2023-09-19T08:17:03;21.39;64.72
18361;SHT31;9308;48.550;9.108;2023-09-19T08:19:30;21.40;64.06
18361;SHT31;9308;48.550;9.108;2023-09-19T08:21:57;21.50;64.27
18361;SHT31;9308;48.550;9.108;2023-09-19T08:24:29;22.17;63.93
18361;SHT31;9308;48.550;9.108;2023-09-19T08:26:56;22.05;63.58
18361;SHT31;9308;48.550;9.108;2023-09-19T08:29:22;22.09;63.58
18361;SHT31;9308;48.550;9.108;2023-09-19T08:31:54;22.02;63.94
18361;SHT31;9308;48.550;9.108;2023-09-19T08:34:19;22.01;64.75
18361;SHT31;9308;48.550;9.108;2023-09-19T08:36:44;22.27;63.78
18361;SHT31;9308;48.550;9.108;2023-09-19T08:39:10;21.79;63.73
18361;SHT31;9308;48.550;9.108;2023-09-19T08:41:36;22.19;63.49
18361;SHT31;9308;48.550;9.108;2023-09-19T08:44:01;22.15;61.87
18361;SHT31;9308;48.550;9.108;2023-09-19T08:46:30;21.99;61.75
18361;SHT31;9308;48.550;9.108;2023-09-19T08:49:03;22.19;62.34
18361;SHT31;9308;48.550;9.108;2023-09-19T08:51:35;22.05;62.01
18361;SHT31;9308;48.550;9.108;2023-09-19T08:54:07;21.89;60.64
18361;SHT31;9308;48.550;9.108;2023-09-19T08:56:33;22.09;61.07
18361;SHT31;9308;48.550;9.108;2023-09-19T08:59:05;22.46;60.05
18361;SHT31;9308;48.550;9.108;2023-09-19T09:01:35;22.56;58.94
18361;SHT31;9308;48.550;9.108;2023-09-19T09:04:01;22.73;60.38
18361;SHT31;9308;48.550;9.108;2023-09-19T09:06:28;22.49;57.79
18361;SHT31;9308;48.550;9.108;2023-09-19T09:08:54;22.13;59.73
18361;SHT31;9308;48.550;9.108;2023-09-19T09:11:20;21.89;60.32
18361;SHT31;9308;48.550;9.108;2023-09-19T09:13:46;21.95;58.73
18361;SHT31;9308;48.550;9.108;2023-09-19T09:16:13;21.92;59.16
18361;SHT31;9308;48.550;9.108;2023-09-19T09:18:39;21.87;59.01
18361;SHT31;9308;48.550;9.108;2023-09-19T09:21:05;21.43;59.36
18361;SHT31;9308;48.550;9.108;2023-09-19T09:23:30;21.91;58.58
18361;SHT31;9308;48.550;9.108;2023-09-19T09:25:58;21.02;57.29
18361;SHT31;9308;48.550;9.108;2023-09-19T09:28:28;21.12;59.76
18361;SHT31;9308;48.550;9.108;2023-09-19T09:30:54;21.27;58.97
18361;SHT31;9308;48.550;9.108;2023-09-19T09:33:20;21.32;58.34
18361;SHT31;9308;48.550;9.108;2023-09-19T09:35:53;21.24;57.62
18361;SHT31;9308;48.550;9.108;2023-09-19T09:38:23;21.10;57.32
18361;SHT31;9308;48.550;9.108;2023-09-19T09:40:54;21.83;56.67
18361;SHT31;9308;48.550;9.108;2023-09-19T09:43:38;21.71;58.13
18361;SHT31;9308;48.550;9.108;2023-09-19T09:46:17;21.60;58.02
18361;SHT31;9308;48.550;9.108;2023-09-19T09:48:45;21.85;56.86
18361;SHT31;9308;48.550;9.108;2023-09-19T09:51:31;21.40;57.10
18361;SHT31;9308;48.550;9.108;2023-09-19T09:54:15;21.97;55.04
18361;SHT31;9308;48.550;9.108;2023-09-19T09:56:58;21.88;56.55
18361;SHT31;9308;48.550;9.108;2023-09-19T10:02:16;21.72;55.54
18361;SHT31;9308;48.550;9.108;2023-09-19T10:04:57;22.06;55.98
18361;SHT31;9308;48.550;9.108;2023-09-19T10:07:48;22.47;55.40
18361;SHT31;9308;48.550;9.108;2023-09-19T10:13:03;23.87;52.58
18361;SHT31;9308;48.550;9.108;2023-09-19T10:15:32;26.32;48.03
18361;SHT31;9308;48.550;9.108;2023-09-19T10:18:00;28.16;44.28
18361;SHT31;9308;48.550;9.108;2023-09-19T10:20:26;26.29;47.25
18361;SHT31;9308;48.550;9.108;2023-09-19T10:22:56;27.04;46.93
18361;SHT31;9308;48.550;9.108;2023-09-19T10:25:27;32.94;36.03
18361;SHT31;9308;48.550;9.108;2023-09-19T10:28:02;34.25;33.01
18361;SHT31;9308;48.550;9.108;2023-09-19T10:30:31;28.99;39.24
18361;SHT31;9308;48.550;9.108;2023-09-19T10:33:01;26.17;44.36
18361;SHT31;9308;48.550;9.108;2023-09-19T10:35:27;25.96;47.37
18361;SHT31;9308;48.550;9.108;2023-09-19T10:37:54;25.59;46.17
18361;SHT31;9308;48.550;9.108;2023-09-19T10:40:21;25.01;46.76
18361;SHT31;9308;48.550;9.108;2023-09-19T10:42:52;25.22;48.74
18361;SHT31;9308;48.550;9.108;2023-09-19T10:45:19;24.86;47.29
18361;SHT31;9308;48.550;9.108;2023-09-19T10:47:45;24.93;48.12
18361;SHT31;9308;48.550;9.108;2023-09-19T10:50:19;25.50;48.95
18361;SHT31;9308;48.550;9.108;2023-09-19T10:52:47;25.28;50.31
18361;SHT31;9308;48.550;9.108;2023-09-19T10:55:16;25.03;47.64
18361;SHT31;9308;48.550;9.108;2023-09-19T10:57:44;25.62;49.23
18361;SHT31;9308;48.550;9.108;2023-09-19T11:00:12;25.87;50.18
18361;SHT31;9308;48.550;9.108;2023-09-19T11:05:34;25.59;47.04
18361;SHT31;9308;48.550;9.108;2023-09-19T11:08:00;25.91;47.19
18361;SHT31;9308;48.550;9.108;2023-09-19T11:10:45;25.55;46.18
18361;SHT31;9308;48.550;9.108;2023-09-19T11:13:27;25.62;47.37
18361;SHT31;9308;48.550;9.108;2023-09-19T11:26:48;24.69;46.74
18361;SHT31;9308;48.550;9.108;2023-09-19T11:29:30;25.26;47.74
18361;SHT31;9308;48.550;9.108;2023-09-19T11:31:57;25.16;47.66
18361;SHT31;9308;48.550;9.108;2023-09-19T11:40:24;24.55;47.65
18361;SHT31;9308;48.550;9.108;2023-09-19T11:42:47;24.86;48.19
18361;SHT31;9308;48.550;9.108;2023-09-19T11:48:13;24.49;47.70
18361;SHT31;9308;48.550;9.108;2023-09-19T11:50:42;24.36;47.21
18361;SHT31;9308;48.550;9.108;2023-09-19T11:53:12;24.36;48.38
18361;SHT31;9308;48.550;9.108;2023-09-19T11:55:38;24.11;49.07
18361;SHT31;9308;48.550;9.108;2023-09-19T11:58:07;24.08;49.18
18361;SHT31;9308;48.550;9.108;2023-09-19T12:00:34;23.70;50.32
18361;SHT31;9308;48.550;9.108;2023-09-19T12:03:07;23.53;50.86
18361;SHT31;9308;48.550;9.108;2023-09-19T12:05:33;24.22;49.75
18361;SHT31;9308;48.550;9.108;2023-09-19T12:08:00;24.26;49.54
18361;SHT31;9308;48.550;9.108;2023-09-19T12:10:27;24.50;48.75
18361;SHT31;9308;48.550;9.108;2023-09-19T12:12:52;24.36;47.90
18361;SHT31;9308;48.550;9.108;2023-09-19T12:15:25;24.40;47.43
18361;SHT31;9308;48.550;9.108;2023-09-19T12:18:04;24.31;48.21
18361;SHT31;9308;48.550;9.108;2023-09-19T12:20:44;24.08;47.78
18361;SHT31;9308;48.550;9.108;2023-09-19T12:23:13;24.11;47.90
18361;SHT31;9308;48.550;9.108;2023-09-19T12:25:42;24.11;49.02
18361;SHT31;9308;48.550;9.108;2023-09-19T12:28:12;23.91;47.46
18361;SHT31;9308;48.550;9.108;2023-09-19T12:30:37;23.91;47.76
18361;SHT31;9308;48.550;9.108;2023-09-19T12:33:04;24.11;49.88
18361;SHT31;9308;48.550;9.108;2023-09-19T12:35:33;24.22;48.87
18361;SHT31;9308;48.550;9.108;2023-09-19T12:38:01;24.29;48.33
18361;SHT31;9308;48.550;9.108;2023-09-19T12:40:28;23.80;48.45
18361;SHT31;9308;48.550;9.108;2023-09-19T12:42:55;23.81;48.35
18361;SHT31;9308;48.550;9.108;2023-09-19T12:45:20;23.81;49.56
18361;SHT31;9308;48.550;9.108;2023-09-19T12:48:18;23.74;48.91
18361;SHT31;9308;48.550;9.108;2023-09-19T12:51:05;23.70;48.29
18361;SHT31;9308;48.550;9.108;2023-09-19T12:53:44;23.83;48.00
18361;SHT31;9308;48.550;9.108;2023-09-19T12:56:11;23.97;48.19
18361;SHT31;9308;48.550;9.108;2023-09-19T12:58:51;23.83;48.58
18361;SHT31;9308;48.550;9.108;2023-09-19T13:01:19;23.90;48.37
18361;SHT31;9308;48.550;9.108;2023-09-19T13:03:44;23.68;48.59
18361;SHT31;9308;48.550;9.108;2023-09-19T13:06:10;23.81;48.36
18361;SHT31;9308;48.550;9.108;2023-09-19T13:08:40;23.88;49.34
18361;SHT31;9308;48.550;9.108;2023-09-19T13:11:17;24.16;49.43
18361;SHT31;9308;48.550;9.108;2023-09-19T13:16:33;24.45;48.83
18361;SHT31;9308;48.550;9.108;2023-09-19T13:18:58;24.40;48.49
18361;SHT31;9308;48.550;9.108;2023-09-19T13:21:34;24.08;48.05
18361;SHT31;9308;48.550;9.108;2023-09-19T13:24:18;23.98;48.13
18361;SHT31;9308;48.550;9.108;2023-09-19T13:26:44;24.12;47.55
18361;SHT31;9308;48.550;9.108;2023-09-19T13:29:09;24.33;47.89
18361;SHT31;9308;48.550;9.108;2023-09-19T13:31:34;24.66;47.83
18361;SHT31;9308;48.550;9.108;2023-09-19T13:34:00;25.07;48.65
18361;SHT31;9308;48.550;9.108;2023-09-19T13:36:26;24.70;48.30
18361;SHT31;9308;48.550;9.108;2023-09-19T13:38:51;24.88;47.77
18361;SHT31;9308;48.550;9.108;2023-09-19T13:41:18;24.87;48.53
18361;SHT31;9308;48.550;9.108;2023-09-19T13:43:43;25.05;48.15
18361;SHT31;9308;48.550;9.108;2023-09-19T13:46:13;25.01;47.83
18361;SHT31;9308;48.550;9.108;2023-09-19T13:48:41;25.05;47.48
18361;SHT31;9308;48.550;9.108;2023-09-19T13:51:06;24.78;47.89
18361;SHT31;9308;48.550;9.108;2023-09-19T13:53:31;25.15;47.54
18361;SHT31;9308;48.550;9.108;2023-09-19T13:55:57;25.07;47.41
18361;SHT31;9308;48.550;9.108;2023-09-19T13:58:22;24.90;47.27
18361;SHT31;9308;48.550;9.108;2023-09-19T14:00:48;24.77;47.30
18361;SHT31;9308;48.550;9.108;2023-09-19T14:03:13;24.97;46.84
18361;SHT31;9308;48.550;9.108;2023-09-19T14:05:39;25.11;47.10
18361;SHT31;9308;48.550;9.108;2023-09-19T14:08:05;25.04;46.22
18361;SHT31;9308;48.550;9.108;2023-09-19T14:10:30;25.16;46.99
18361;SHT31;9308;48.550;9.108;2023-09-19T14:12:57;25.08;47.90
18361;SHT31;9308;48.550;9.108;2023-09-19T14:15:24;25.25;47.01
18361;SHT31;9308;48.550;9.108;2023-09-19T14:17:58;25.62;46.15
18361;SHT31;9308;48.550;9.108;2023-09-19T14:20:24;25.56;47.85
18361;SHT31;9308;48.550;9.108;2023-09-19T14:22:49;25.65;46.02
18361;SHT31;9308;48.550;9.108;2023-09-19T14:25:14;25.83;45.94
18361;SHT31;9308;48.550;9.108;2023-09-19T14:27:40;25.74;45.15
18361;SHT31;9308;48.550;9.108;2023-09-19T14:30:07;25.52;44.72
18361;SHT31;9308;48.550;9.108;2023-09-19T14:32:32;25.87;44.55
18361;SHT31;9308;48.550;9.108;2023-09-19T14:34:58;25.83;44.18
18361;SHT31;9308;48.550;9.108;2023-09-19T14:37:23;25.47;43.09
18361;SHT31;9308;48.550;9.108;2023-09-19T14:39:49;25.15;43.16
18361;SHT31;9308;48.550;9.108;2023-09-19T14:42:14;25.01;44.17
18361;SHT31;9308;48.550;9.108;2023-09-19T14:44:43;25.52;44.28
18361;SHT31;9308;48.550;9.108;2023-09-19T14:47:08;25.07;45.79
18361;SHT31;9308;48.550;9.108;2023-09-19T14:49:34;25.01;45.92
18361;SHT31;9308;48.550;9.108;2023-09-19T14:52:00;24.74;44.78
18361;SHT31;9308;48.550;9.108;2023-09-19T14:54:30;24.77;46.00
18361;SHT31;9308;48.550;9.108;2023-09-19T14:56:56;25.15;45.93
18361;SHT31;9308;48.550;9.108;2023-09-19T14:59:32;24.94;44.67
18361;SHT31;9308;48.550;9.108;2023-09-19T15:01:59;25.03;45.02
18361;SHT31;9308;48.550;9.108;2023-09-19T15:04:25;25.10;46.02
18361;SHT31;9308;48.550;9.108;2023-09-19T15:06:52;24.81;45.19
18361;SHT31;9308;48.550;9.108;2023-09-19T15:09:20;24.74;45.34
18361;SHT31;9308;48.550;9.108;2023-09-19T15:11:49;25.00;45.71
18361;SHT31;9308;48.550;9.108;2023-09-19T15:14:14;24.83;44.86
18361;SHT31;9308;48.550;9.108;2023-09-19T15:16:40;24.80;45.40
18361;SHT31;9308;48.550;9.108;2023-09-19T15:19:07;24.56;45.14
18361;SHT31;9308;48.550;9.108;2023-09-19T15:21:33;24.21;44.92
18361;SHT31;9308;48.550;9.108;2023-09-19T15:23:58;24.46;45.80
18361;SHT31;9308;48.550;9.108;2023-09-19T15:26:24;24.66;45.71
18361;SHT31;9308;48.550;9.108;2023-09-19T15:28:50;24.59;46.08
18361;SHT31;9308;48.550;9.108;2023-09-19T15:31:15;24.22;44.88
18361;SHT31;9308;48.550;9.108;2023-09-19T15:33:41;24.23;45.67
18361;SHT31;9308;48.550;9.108;2023-09-19T15:36:08;24.36;45.33
18361;SHT31;9308;48.550;9.108;2023-09-19T15:38:56;24.29;45.77
18361;SHT31;9308;48.550;9.108;2023-09-19T15:41:23;24.67;47.01
18361;SHT31;9308;48.550;9.108;2023-09-19T15:43:49;24.55;46.36
18361;SHT31;9308;48.550;9.108;2023-09-19T15:46:14;23.94;46.42
18361;SHT31;9308;48.550;9.108;2023-09-19T15:48:40;24.32;46.95
18361;SHT31;9308;48.550;9.108;2023-09-19T15:51:06;24.43;47.02
18361;SHT31;9308;48.550;9.108;2023-09-19T15:53:43;24.23;46.73
18361;SHT31;9308;48.550;9.108;2023-09-19T15:56:12;24.12;46.69
18361;SHT31;9308;48.550;9.108;2023-09-19T15:58:39;24.15;47.13
18361;SHT31;9308;48.550;9.108;2023-09-19T16:01:06;24.28;47.38
18361;SHT31;9308;48.550;9.108;2023-09-19T16:03:36;24.12;46.30
18361;SHT31;9308;48.550;9.108;2023-09-19T16:06:08;23.84;47.36
18361;SHT31;9308;48.550;9.108;2023-09-19T16:08:34;23.80;47.26
18361;SHT31;9308;48.550;9.108;2023-09-19T16:11:00;23.88;46.45
18361;SHT31;9308;48.550;9.108;2023-09-19T16:13:26;24.00;46.38
18361;SHT31;9308;48.550;9.108;2023-09-19T16:15:53;23.71;47.60
18361;SHT31;9308;48.550;9.108;2023-09-19T16:18:19;23.51;46.87
18361;SHT31;9308;48.550;9.108;2023-09-19T16:20:44;23.61;46.70
18361;SHT31;9308;48.550;9.108;2023-09-19T16:23:10;23.95;45.26
18361;SHT31;9308;48.550;9.108;2023-09-19T16:25:36;23.61;45.10
18361;SHT31;9308;48.550;9.108;2023-09-19T16:28:01;23.84;46.47
18361;SHT31;9308;48.550;9.108;2023-09-19T16:30:27;23.66;45.32
18361;SHT31;9308;48.550;9.108;2023-09-19T16:32:54;23.64;45.61
18361;SHT31;9308;48.550;9.108;2023-09-19T16:35:19;23.68;45.39